createdAt,value
2018-10-12T00:47:57.460Z,17.80
2018-10-12T07:45:11.303Z,17.50
2018-10-12T07:50:28.494Z,18.30
2018-10-12T07:55:53.983Z,18.50
2018-10-12T08:01:13.373Z,18.60
2018-10-12T08:06:27.486Z,19.40
2018-10-12T08:11:27.868Z,20.20
2018-10-12T08:16:26.576Z,20.70
2018-10-12T08:21:24.521Z,21.10
2018-10-12T08:26:25.882Z,21.40
2018-10-12T08:31:22.559Z,21.30
2018-10-12T08:36:25.695Z,21.40
2018-10-12T08:41:21.444Z,21.60
2018-10-12T08:46:19.722Z,21.80
2018-10-12T08:51:17.218Z,21.90
2018-10-12T08:56:12.819Z,22.00
2018-10-12T09:01:17.009Z,21.70
2018-10-12T09:06:14.275Z,21.30
2018-10-12T09:11:19.590Z,21.10
2018-10-12T09:16:17.428Z,20.90
2018-10-12T09:21:22.430Z,21.00
2018-10-12T09:26:20.037Z,21.10
2018-10-12T09:31:18.609Z,21.50
2018-10-12T09:36:17.217Z,21.50
2018-10-12T09:41:20.848Z,21.70
2018-10-12T09:46:15.987Z,22.30
2018-10-12T09:51:10.206Z,22.60
2018-10-12T09:56:05.156Z,22.70
2018-10-12T10:00:57.784Z,22.90
2018-10-12T10:06:00.468Z,22.80
2018-10-12T10:10:57.657Z,22.50
2018-10-12T10:15:52.759Z,22.40
2018-10-12T10:20:50.840Z,22.30
2018-10-12T10:25:44.929Z,22.30
2018-10-12T10:30:39.822Z,22.40
2018-10-12T10:35:37.748Z,22.40
2018-10-12T10:40:36.143Z,22.40
2018-10-12T10:45:34.191Z,22.40
2018-10-12T10:50:29.653Z,22.60
2018-10-12T10:55:25.574Z,22.80
2018-10-12T11:00:19.457Z,22.80
2018-10-12T11:05:13.075Z,22.90
2018-10-12T11:10:11.424Z,23.00
2018-10-12T11:15:07.043Z,23.20
2018-10-12T11:20:08.855Z,23.40
2018-10-12T11:24:59.361Z,23.50
2018-10-12T11:29:54.078Z,23.70
2018-10-12T11:34:48.564Z,24.00
2018-10-12T11:39:43.257Z,24.20
2018-10-12T11:44:38.734Z,24.30
2018-10-12T11:49:33.631Z,24.50
2018-10-12T11:54:28.048Z,24.80
2018-10-12T11:59:21.005Z,24.90
2018-10-12T12:04:15.705Z,25.10
2018-10-12T12:09:07.306Z,25.20
2018-10-12T12:14:03.383Z,25.40
2018-10-12T12:18:55.580Z,25.70
2018-10-12T12:23:48.387Z,26.00
2018-10-12T12:28:39.785Z,26.30
2018-10-12T12:33:32.593Z,26.50
2018-10-12T12:38:26.672Z,26.60
2018-10-12T12:43:18.381Z,26.80
2018-10-12T12:48:17.035Z,26.90
2018-10-12T12:53:13.355Z,27.00
2018-10-12T12:58:02.675Z,27.00
2018-10-12T13:02:54.959Z,26.90
2018-10-12T13:07:47.864Z,27.00
2018-10-12T13:12:40.074Z,26.80
2018-10-12T13:17:31.785Z,27.00
2018-10-12T13:22:24.410Z,27.40
2018-10-12T13:27:16.323Z,27.40
2018-10-12T13:32:11.135Z,27.10
2018-10-12T13:37:02.099Z,26.70
2018-10-12T13:41:53.774Z,26.60
2018-10-12T13:46:46.304Z,26.50
2018-10-12T13:51:38.396Z,26.50
2018-10-12T13:56:30.640Z,26.70
2018-10-12T14:01:22.186Z,27.00
2018-10-12T14:06:14.259Z,27.20
2018-10-12T14:11:06.687Z,27.30
2018-10-12T14:15:58.929Z,27.20
2018-10-12T14:20:51.966Z,26.90
2018-10-12T14:25:43.945Z,26.60
2018-10-12T14:30:35.983Z,26.40
2018-10-12T14:35:28.154Z,26.30
2018-10-12T14:40:20.049Z,26.20
2018-10-12T14:45:15.222Z,26.10
2018-10-12T14:50:06.957Z,26.00
2018-10-12T14:54:59.337Z,25.90
2018-10-12T14:59:51.394Z,25.90
2018-10-12T15:04:46.260Z,25.80
2018-10-12T15:09:40.253Z,25.80
2018-10-12T15:14:31.162Z,25.70
2018-10-12T15:19:26.514Z,25.70
2018-10-12T15:24:18.246Z,25.60
2018-10-12T15:29:10.533Z,25.60
2018-10-12T15:34:05.741Z,25.50
2018-10-12T15:38:59.668Z,25.50
2018-10-12T15:43:50.975Z,25.40
2018-10-12T15:48:47.480Z,25.40
2018-10-12T15:53:41.469Z,25.30
2018-10-12T15:58:36.851Z,25.20
2018-10-12T16:03:40.998Z,25.10
2018-10-12T16:08:35.149Z,25.00
2018-10-12T16:13:26.237Z,24.90
2018-10-12T16:18:21.453Z,24.80
2018-10-12T16:23:16.841Z,24.80
2018-10-12T16:28:12.049Z,24.70
2018-10-12T16:33:09.006Z,24.60
2018-10-12T16:38:02.322Z,24.50
2018-10-12T16:42:56.708Z,24.40
2018-10-12T16:47:50.764Z,24.30
2018-10-12T16:52:46.297Z,24.20
2018-10-12T16:57:51.598Z,24.20
2018-10-12T17:03:03.969Z,24.20
2018-10-12T17:07:57.517Z,24.10
2018-10-12T17:12:50.121Z,24.00
2018-10-12T17:17:47.745Z,23.90
2018-10-12T17:22:41.648Z,23.90
2018-10-12T17:27:37.766Z,23.70
2018-10-12T17:32:32.858Z,23.70
2018-10-12T17:37:28.948Z,23.70
2018-10-12T17:42:24.719Z,23.60
2018-10-12T17:47:18.233Z,23.60
2018-10-12T17:52:16.819Z,23.50
2018-10-12T17:57:14.628Z,23.40
2018-10-12T18:02:21.730Z,23.30
2018-10-12T18:07:15.171Z,23.30
2018-10-12T18:12:07.224Z,23.30
2018-10-12T18:17:01.244Z,23.30
2018-10-12T18:21:55.179Z,23.30
2018-10-12T18:26:48.768Z,23.20
2018-10-12T18:31:45.773Z,23.20
2018-10-12T18:36:38.583Z,23.00
2018-10-12T18:41:37.401Z,23.00
2018-10-12T18:46:35.552Z,22.90
2018-10-12T18:51:31.174Z,22.80
2018-10-12T18:56:24.388Z,22.70
2018-10-12T19:01:20.214Z,22.70
2018-10-12T19:06:23.261Z,22.70
2018-10-12T19:11:19.974Z,22.70
2018-10-12T19:16:13.877Z,22.70
2018-10-12T19:21:14.748Z,22.70
2018-10-12T19:26:06.301Z,22.70
2018-10-12T19:31:07.539Z,22.70
2018-10-12T19:36:01.395Z,22.70
2018-10-12T19:40:58.122Z,22.50
2018-10-12T19:45:54.989Z,22.50
2018-10-12T19:51:07.277Z,22.40
2018-10-12T19:56:01.133Z,22.30
2018-10-12T20:01:01.056Z,22.30
2018-10-12T20:06:01.937Z,22.20
2018-10-12T20:11:00.531Z,22.10
2018-10-12T20:15:56.781Z,22.00
2018-10-12T20:20:55.002Z,21.90
2018-10-12T20:25:58.965Z,21.80
2018-10-12T20:31:10.167Z,21.60
2018-10-12T20:36:13.894Z,21.40
2018-10-12T20:41:12.310Z,21.40
2018-10-12T20:46:13.665Z,21.30
2018-10-12T20:51:14.604Z,21.10
2018-10-12T20:56:15.899Z,21.00
2018-10-12T21:01:16.423Z,20.90
2018-10-12T21:06:17.492Z,20.80
2018-10-12T21:11:27.020Z,20.70
2018-10-12T21:16:30.536Z,20.70
2018-10-12T21:21:37.965Z,20.60
2018-10-12T21:26:38.761Z,20.50
2018-10-12T21:31:41.797Z,20.50
2018-10-12T21:36:52.551Z,20.40
2018-10-12T21:42:01.973Z,20.40
2018-10-12T21:47:01.721Z,20.30
2018-10-12T21:52:05.517Z,20.20
2018-10-12T21:57:11.335Z,20.30
2018-10-12T22:02:14.732Z,20.20
2018-10-12T22:07:25.207Z,20.20
2018-10-12T22:12:33.862Z,20.20
2018-10-12T22:17:37.335Z,20.10
2018-10-12T22:22:44.170Z,20.10
2018-10-12T22:27:47.876Z,20.10
2018-10-12T22:32:54.990Z,20.10
2018-10-12T22:38:06.832Z,20.10
2018-10-12T22:43:18.157Z,20.10
2018-10-12T22:48:21.153Z,20.10
2018-10-12T22:53:39.031Z,20.10
2018-10-12T22:58:55.826Z,20.10
2018-10-12T23:03:58.147Z,20.10
2018-10-12T23:09:01.977Z,20.20
2018-10-12T23:14:12.934Z,20.20
2018-10-12T23:19:16.336Z,20.20
2018-10-12T23:24:28.415Z,20.20
2018-10-12T23:29:31.776Z,20.20
2018-10-12T23:34:35.800Z,20.10
2018-10-12T23:39:50.913Z,20.10
2018-10-12T23:45:03.978Z,20.10
2018-10-12T23:50:20.778Z,20.10
2018-10-12T23:55:31.432Z,19.90
